createdAt,value
2018-09-30T00:00:23.299Z,90.83
2018-09-30T00:02:52.590Z,91.41
2018-09-30T00:05:22.353Z,90.90
2018-09-30T00:07:51.687Z,90.97
2018-09-30T00:10:20.901Z,90.43
2018-09-30T00:12:50.135Z,90.81
2018-09-30T00:15:19.466Z,90.18
2018-09-30T00:17:48.661Z,91.79
2018-09-30T00:20:17.955Z,91.81
2018-09-30T00:22:47.292Z,92.04
2018-09-30T00:25:22.026Z,93.10
2018-09-30T00:27:51.256Z,93.66
2018-09-30T00:30:20.539Z,93.32
2018-09-30T00:32:49.752Z,94.09
2018-09-30T00:35:19.027Z,93.84
2018-09-30T00:37:48.287Z,93.76
2018-09-30T00:40:17.559Z,93.48
2018-09-30T00:42:47.162Z,93.20
2018-09-30T00:45:16.447Z,93.40
2018-09-30T00:47:45.722Z,93.55
2018-09-30T00:50:15.039Z,93.66
2018-09-30T00:52:44.333Z,93.38
2018-09-30T00:55:13.645Z,93.70
2018-09-30T00:57:42.903Z,93.28
2018-09-30T01:00:12.162Z,94.86
2018-09-30T01:02:41.579Z,94.32
2018-09-30T01:05:10.898Z,94.69
2018-09-30T01:07:40.142Z,94.64
2018-09-30T01:10:09.417Z,95.51
2018-09-30T01:12:38.699Z,94.82
2018-09-30T01:15:08.292Z,94.66
2018-09-30T01:17:37.550Z,94.04
2018-09-30T01:20:06.873Z,94.99
2018-09-30T01:22:36.100Z,95.55
2018-09-30T01:25:05.390Z,96.00
2018-09-30T01:27:34.646Z,95.81
2018-09-30T01:30:03.981Z,95.45
2018-09-30T01:32:33.472Z,95.25
2018-09-30T01:35:02.710Z,95.30
2018-09-30T01:37:31.954Z,95.74
2018-09-30T01:40:01.204Z,96.19
2018-09-30T01:42:30.470Z,95.85
2018-09-30T01:44:59.731Z,95.75
2018-09-30T01:47:28.958Z,96.28
2018-09-30T01:49:58.199Z,95.75
2018-09-30T01:52:45.279Z,95.62
2018-09-30T01:55:14.538Z,95.83
2018-09-30T01:57:43.798Z,95.65
2018-09-30T02:00:13.062Z,95.42
2018-09-30T02:02:42.328Z,94.67
2018-09-30T02:05:11.659Z,95.00
2018-09-30T02:07:40.948Z,94.92
2018-09-30T02:10:10.177Z,95.76
2018-09-30T02:12:39.426Z,96.05
2018-09-30T02:15:08.707Z,96.74
2018-09-30T02:17:37.980Z,96.20
2018-09-30T02:20:07.290Z,96.37
2018-09-30T02:22:36.566Z,97.96
2018-09-30T02:25:05.822Z,98.02
2018-09-30T02:27:35.086Z,97.81
2018-09-30T02:30:04.422Z,97.39
2018-09-30T02:32:33.670Z,97.79
2018-09-30T02:35:02.918Z,97.45
2018-09-30T02:37:32.179Z,98.42
2018-09-30T02:40:01.429Z,98.28
2018-09-30T02:42:30.668Z,98.66
2018-09-30T02:44:59.907Z,98.29
2018-09-30T02:47:29.160Z,98.44
2018-09-30T02:49:58.405Z,97.44
2018-09-30T02:52:27.671Z,97.37
2018-09-30T02:54:56.867Z,97.76
2018-09-30T02:57:26.134Z,97.29
2018-09-30T02:59:55.357Z,97.20
2018-09-30T03:02:24.663Z,96.75
2018-09-30T03:04:53.937Z,96.88
2018-09-30T03:07:28.526Z,95.70
2018-09-30T03:09:57.775Z,95.91
2018-09-30T03:12:27.023Z,96.23
2018-09-30T03:14:56.296Z,95.73
2018-09-30T03:17:25.567Z,95.49
2018-09-30T03:19:54.797Z,96.57
2018-09-30T03:22:24.065Z,95.63
2018-09-30T03:24:53.282Z,94.64
2018-09-30T03:27:22.589Z,94.62
2018-09-30T03:29:58.511Z,94.28
2018-09-30T03:32:27.810Z,93.96
2018-09-30T03:34:57.061Z,93.38
2018-09-30T03:37:26.357Z,94.46
2018-09-30T03:39:55.597Z,95.02
2018-09-30T03:42:24.911Z,95.20
2018-09-30T03:44:54.222Z,96.31
2018-09-30T03:47:23.510Z,96.21
2018-09-30T03:49:52.794Z,96.38
2018-09-30T03:52:22.078Z,95.68
2018-09-30T03:54:51.358Z,94.41
2018-09-30T03:57:21.171Z,94.79
2018-09-30T03:59:50.483Z,94.78
2018-09-30T04:02:19.756Z,94.81
2018-09-30T04:04:49.134Z,94.97
2018-09-30T04:07:18.491Z,94.54
2018-09-30T04:09:47.894Z,95.13
2018-09-30T04:12:17.034Z,95.04
2018-09-30T04:14:46.309Z,95.95
2018-09-30T04:17:15.675Z,95.51
2018-09-30T04:19:44.990Z,96.69
2018-09-30T04:22:14.253Z,97.21
2018-09-30T04:24:43.530Z,97.35
2018-09-30T04:27:12.881Z,96.64
2018-09-30T04:29:42.144Z,96.61
2018-09-30T04:32:11.435Z,97.23
2018-09-30T04:34:40.902Z,96.77
2018-09-30T04:37:10.183Z,96.89
2018-09-30T04:39:39.479Z,96.69
2018-09-30T04:42:08.768Z,96.87
2018-09-30T04:44:38.082Z,95.92
2018-09-30T04:47:07.363Z,95.72
2018-09-30T04:49:36.645Z,96.62
2018-09-30T04:52:07.022Z,97.03
2018-09-30T04:54:36.314Z,96.70
2018-09-30T04:57:05.599Z,95.80
2018-09-30T04:59:34.885Z,95.20
2018-09-30T05:02:04.289Z,94.93
2018-09-30T05:04:33.605Z,94.50
2018-09-30T05:07:02.874Z,93.88
2018-09-30T05:09:32.215Z,92.47
2018-09-30T05:12:01.517Z,92.08
2018-09-30T05:14:30.806Z,92.61
2018-09-30T05:17:00.087Z,92.68
2018-09-30T05:19:29.539Z,92.52
2018-09-30T05:21:58.798Z,91.14
2018-09-30T05:24:28.094Z,91.40
2018-09-30T05:26:57.370Z,90.15
2018-09-30T05:29:26.705Z,89.73
2018-09-30T05:31:55.949Z,90.69
2018-09-30T05:34:25.231Z,91.77
2018-09-30T05:36:54.535Z,93.28
2018-09-30T05:39:23.777Z,93.24
2018-09-30T05:41:53.051Z,93.21
2018-09-30T05:44:22.293Z,93.17
2018-09-30T05:46:51.534Z,92.98
2018-09-30T05:49:20.879Z,93.17
2018-09-30T05:51:50.230Z,93.05
2018-09-30T05:54:19.476Z,92.68
2018-09-30T05:56:48.738Z,93.25
2018-09-30T05:59:18.011Z,92.95
2018-09-30T06:01:47.294Z,92.78
2018-09-30T06:04:16.558Z,92.52
2018-09-30T06:06:45.802Z,92.21
2018-09-30T06:09:15.786Z,92.18
2018-09-30T06:11:46.461Z,91.50
2018-09-30T06:14:16.356Z,90.85
2018-09-30T06:16:45.488Z,89.78
2018-09-30T06:19:14.745Z,89.44
2018-09-30T06:21:44.030Z,89.29
2018-09-30T06:24:13.307Z,88.69
2018-09-30T06:26:42.554Z,88.00
2018-09-30T06:29:11.860Z,87.48
2018-09-30T06:31:41.181Z,86.63
2018-09-30T06:34:10.380Z,85.73
2018-09-30T06:36:39.651Z,86.73
2018-09-30T06:39:10.204Z,86.46
2018-09-30T06:41:39.482Z,86.71
2018-09-30T06:44:08.762Z,86.86
2018-09-30T06:46:38.024Z,87.08
2018-09-30T06:49:07.231Z,85.67
2018-09-30T06:51:36.449Z,84.23
2018-09-30T06:54:05.674Z,83.89
2018-09-30T06:56:34.933Z,83.53
2018-09-30T06:59:04.352Z,82.37
2018-09-30T07:01:33.560Z,81.66
2018-09-30T07:04:02.747Z,80.08
2018-09-30T07:06:32.087Z,79.72
2018-09-30T07:09:01.579Z,79.83
2018-09-30T07:11:30.896Z,78.68
2018-09-30T07:14:00.174Z,78.30
2018-09-30T07:16:29.473Z,78.07
2018-09-30T07:18:58.809Z,77.27
2018-09-30T07:21:28.235Z,76.67
2018-09-30T07:23:57.482Z,75.96
2018-09-30T07:26:26.775Z,76.48
2018-09-30T07:28:56.058Z,75.23
2018-09-30T07:31:25.346Z,73.97
2018-09-30T07:33:54.654Z,73.89
2018-09-30T07:36:23.894Z,72.54
2018-09-30T07:38:53.139Z,72.98
2018-09-30T07:41:22.491Z,72.38
2018-09-30T07:43:51.771Z,72.26
2018-09-30T07:46:21.273Z,71.31
2018-09-30T07:48:51.454Z,70.83
2018-09-30T07:51:21.691Z,69.92
2018-09-30T07:53:51.785Z,69.27
2018-09-30T07:56:21.118Z,69.19
2018-09-30T07:58:50.401Z,68.75
2018-09-30T08:01:19.897Z,69.30
2018-09-30T08:03:49.214Z,68.96
2018-09-30T08:06:18.565Z,67.93
2018-09-30T08:08:48.590Z,67.04
2018-09-30T08:11:17.918Z,67.86
2018-09-30T08:13:47.220Z,67.24
2018-09-30T08:16:16.546Z,66.85
2018-09-30T08:18:45.827Z,67.01
2018-09-30T08:21:15.128Z,66.82
2018-09-30T08:23:44.425Z,66.49
2018-09-30T08:26:13.781Z,66.37
2018-09-30T08:28:43.301Z,66.45
2018-09-30T08:31:12.595Z,65.19
2018-09-30T08:33:41.908Z,64.73
2018-09-30T08:36:11.408Z,65.08
2018-09-30T08:38:41.945Z,64.22
2018-09-30T08:41:12.110Z,64.78
2018-09-30T08:43:42.645Z,64.22
2018-09-30T08:46:11.878Z,63.84
2018-09-30T08:48:41.180Z,62.71
2018-09-30T08:51:10.460Z,62.36
2018-09-30T08:53:39.733Z,63.27
2018-09-30T08:56:09.083Z,62.08
2018-09-30T08:58:38.342Z,62.18
2018-09-30T09:01:07.626Z,61.08
2018-09-30T09:03:36.945Z,61.32
2018-09-30T09:06:06.303Z,61.07
2018-09-30T09:08:35.617Z,60.85
2018-09-30T09:11:04.926Z,59.86
2018-09-30T09:13:34.224Z,60.22
2018-09-30T09:16:03.581Z,58.25
2018-09-30T09:18:32.895Z,58.68
2018-09-30T09:21:02.190Z,59.33
2018-09-30T09:23:31.474Z,59.23
2018-09-30T09:26:00.779Z,57.67
2018-09-30T09:28:30.095Z,57.80
2018-09-30T09:30:59.436Z,58.53
2018-09-30T09:33:28.746Z,58.55
2018-09-30T09:35:58.178Z,58.12
2018-09-30T09:38:27.588Z,58.36
2018-09-30T09:40:56.807Z,56.61
2018-09-30T09:43:26.181Z,60.02
2018-09-30T09:45:55.454Z,58.37
2018-09-30T09:48:24.711Z,57.22
2018-09-30T09:50:54.044Z,55.41
2018-09-30T09:53:23.306Z,56.03
2018-09-30T09:55:52.619Z,55.11
2018-09-30T09:58:21.800Z,54.97
2018-09-30T10:00:51.083Z,58.28
2018-09-30T10:03:20.394Z,54.99
2018-09-30T10:05:49.654Z,53.20
2018-09-30T10:08:18.960Z,52.44
2018-09-30T10:10:48.212Z,53.28
2018-09-30T10:13:17.643Z,53.64
2018-09-30T10:15:46.914Z,56.34
2018-09-30T10:18:16.168Z,54.65
2018-09-30T10:20:45.452Z,52.93
2018-09-30T10:23:14.699Z,53.78
2018-09-30T10:25:43.982Z,53.61
2018-09-30T10:28:13.209Z,52.41
2018-09-30T10:30:42.491Z,52.33
2018-09-30T10:33:11.735Z,52.42
2018-09-30T10:35:41.107Z,53.00
2018-09-30T10:38:10.349Z,51.86
2018-09-30T10:40:39.678Z,51.94
2018-09-30T10:43:08.966Z,53.82
2018-09-30T10:45:38.268Z,52.96
2018-09-30T10:48:08.057Z,53.01
2018-09-30T10:50:37.370Z,52.60
2018-09-30T10:53:06.697Z,52.29
2018-09-30T10:55:35.986Z,52.08
2018-09-30T10:58:05.302Z,51.54
2018-09-30T11:00:34.682Z,52.89
2018-09-30T11:03:03.934Z,51.04
2018-09-30T11:05:33.240Z,51.56
2018-09-30T11:08:02.514Z,51.87
2018-09-30T11:10:31.791Z,51.46
2018-09-30T11:13:01.075Z,50.99
2018-09-30T11:15:30.414Z,50.92
2018-09-30T11:17:59.674Z,52.26
2018-09-30T11:20:29.013Z,51.29
2018-09-30T11:22:58.289Z,51.49
2018-09-30T11:25:27.614Z,50.54
2018-09-30T11:27:56.876Z,50.04
2018-09-30T11:30:26.186Z,50.00
2018-09-30T11:32:55.436Z,51.18
2018-09-30T11:35:24.709Z,51.26
2018-09-30T11:37:54.036Z,50.66
2018-09-30T11:40:23.311Z,50.30
2018-09-30T11:42:52.567Z,49.87
2018-09-30T11:45:21.871Z,50.51
2018-09-30T11:47:51.158Z,49.84
2018-09-30T11:50:20.399Z,50.03
2018-09-30T11:52:49.834Z,50.51
2018-09-30T11:55:19.115Z,49.98
2018-09-30T11:57:48.470Z,50.60
2018-09-30T12:00:17.746Z,50.32
2018-09-30T12:02:47.000Z,49.45
2018-09-30T12:05:16.241Z,49.89
2018-09-30T12:07:45.470Z,49.87
2018-09-30T12:10:14.732Z,49.88
2018-09-30T12:12:43.932Z,49.45
2018-09-30T12:15:13.250Z,49.58
2018-09-30T12:17:42.488Z,49.41
2018-09-30T12:20:11.820Z,49.17
2018-09-30T12:22:41.073Z,48.88
2018-09-30T12:25:10.339Z,48.85
2018-09-30T12:27:39.593Z,49.71
2018-09-30T12:30:08.844Z,49.47
2018-09-30T12:32:38.111Z,49.56
2018-09-30T12:35:07.386Z,49.79
2018-09-30T12:37:36.626Z,49.03
2018-09-30T12:40:06.222Z,48.46
2018-09-30T12:42:35.497Z,49.10
2018-09-30T12:45:05.089Z,48.52
2018-09-30T12:47:34.361Z,49.16
2018-09-30T12:50:03.657Z,48.28
2018-09-30T12:52:32.903Z,48.25
2018-09-30T12:55:02.158Z,48.63
2018-09-30T12:57:31.402Z,47.96
2018-09-30T13:00:00.703Z,48.19
2018-09-30T13:02:30.002Z,48.12
2018-09-30T13:04:59.278Z,48.31
2018-09-30T13:07:28.553Z,49.04
2018-09-30T13:09:57.811Z,48.50
2018-09-30T13:12:27.095Z,47.54
2018-09-30T13:14:56.358Z,47.59
2018-09-30T13:17:25.642Z,47.51
2018-09-30T13:19:54.899Z,48.13
2018-09-30T13:22:24.174Z,47.43
2018-09-30T13:24:53.610Z,47.94
2018-09-30T13:27:23.317Z,47.60
2018-09-30T13:29:52.585Z,47.91
2018-09-30T13:32:22.009Z,47.31
2018-09-30T13:34:51.367Z,47.36
2018-09-30T13:37:20.790Z,47.47
2018-09-30T13:39:50.059Z,47.70
2018-09-30T13:42:19.482Z,46.61
2018-09-30T13:44:48.758Z,47.49
2018-09-30T13:47:18.034Z,47.11
2018-09-30T13:49:47.323Z,46.89
2018-09-30T13:52:16.636Z,47.92
2018-09-30T13:54:45.900Z,48.54
2018-09-30T13:57:15.302Z,48.13
2018-09-30T13:59:44.574Z,48.03
2018-09-30T14:02:13.931Z,47.64
2018-09-30T14:04:43.252Z,47.42
2018-09-30T14:07:12.579Z,47.49
2018-09-30T14:09:41.927Z,47.13
2018-09-30T14:12:11.216Z,47.98
2018-09-30T14:14:40.613Z,48.26
2018-09-30T14:17:09.888Z,47.77
2018-09-30T14:19:39.208Z,48.72
2018-09-30T14:22:08.527Z,47.02
2018-09-30T14:24:37.945Z,47.36
2018-09-30T14:27:07.343Z,47.50
2018-09-30T14:29:36.677Z,48.00
2018-09-30T14:32:05.951Z,47.65
2018-09-30T14:34:35.259Z,48.11
2018-09-30T14:37:20.666Z,48.20
2018-09-30T14:39:51.176Z,48.13
2018-09-30T14:42:23.724Z,47.92
2018-09-30T14:44:56.697Z,48.10
2018-09-30T14:47:26.662Z,48.13
2018-09-30T14:49:57.805Z,48.60
2018-09-30T14:52:29.223Z,48.60
2018-09-30T14:54:59.688Z,48.76
2018-09-30T15:00:11.373Z,48.81
2018-09-30T15:02:45.270Z,48.71
2018-09-30T15:05:15.583Z,48.80
2018-09-30T15:07:49.608Z,48.82
2018-09-30T15:10:19.921Z,49.26
2018-09-30T15:15:32.019Z,48.39
2018-09-30T15:18:01.402Z,48.71
2018-09-30T15:20:30.865Z,48.78
2018-09-30T15:23:00.215Z,49.16
2018-09-30T15:25:30.067Z,49.30
2018-09-30T15:27:59.441Z,49.47
2018-09-30T15:30:28.755Z,49.57
2018-09-30T15:32:58.550Z,50.34
2018-09-30T15:35:28.116Z,49.92
2018-09-30T15:37:58.262Z,50.03
2018-09-30T15:40:27.659Z,49.97
2018-09-30T15:42:57.826Z,50.51
2018-09-30T15:45:27.184Z,50.36
2018-09-30T15:47:56.552Z,50.10
2018-09-30T15:50:26.238Z,49.96
2018-09-30T15:53:02.375Z,50.23
2018-09-30T15:55:31.855Z,50.55
2018-09-30T15:58:01.519Z,50.38
2018-09-30T16:00:30.924Z,50.97
2018-09-30T16:03:00.374Z,51.63
2018-09-30T16:05:29.767Z,52.15
2018-09-30T16:07:59.174Z,51.82
2018-09-30T16:10:28.563Z,52.38
2018-09-30T16:12:58.019Z,52.88
2018-09-30T16:15:27.342Z,52.92
2018-09-30T16:17:56.651Z,53.39
2018-09-30T16:20:26.022Z,53.71
2018-09-30T16:22:55.363Z,53.99
2018-09-30T16:25:24.771Z,54.32
2018-09-30T16:27:54.096Z,55.00
2018-09-30T16:30:23.719Z,55.15
2018-09-30T16:32:53.096Z,55.36
2018-09-30T16:35:22.399Z,56.45
2018-09-30T16:37:51.731Z,56.68
2018-09-30T16:40:21.078Z,56.47
2018-09-30T16:42:50.375Z,56.26
2018-09-30T16:45:19.744Z,56.87
2018-09-30T16:47:49.126Z,57.60
2018-09-30T16:50:18.459Z,56.86
2018-09-30T16:52:47.730Z,57.77
2018-09-30T16:55:17.026Z,58.06
2018-09-30T16:57:46.341Z,58.41
2018-09-30T17:00:15.641Z,59.29
2018-09-30T17:02:44.945Z,60.04
2018-09-30T17:05:14.321Z,61.48
2018-09-30T17:07:43.723Z,64.86
2018-09-30T17:10:13.664Z,65.91
2018-09-30T17:12:43.068Z,67.04
2018-09-30T17:15:12.470Z,68.81
2018-09-30T17:17:41.847Z,68.94
2018-09-30T17:20:11.219Z,69.31
2018-09-30T17:22:40.640Z,69.45
2018-09-30T17:25:10.214Z,70.57
2018-09-30T17:27:39.677Z,71.49
2018-09-30T17:30:09.291Z,71.77
2018-09-30T17:32:38.781Z,73.11
2018-09-30T17:35:08.272Z,73.75
2018-09-30T17:37:37.678Z,74.36
2018-09-30T17:40:07.289Z,74.91
2018-09-30T17:42:36.831Z,75.62
2018-09-30T17:45:07.123Z,75.47
2018-09-30T17:47:36.662Z,76.06
2018-09-30T17:50:06.220Z,76.62
2018-09-30T17:52:35.584Z,76.55
2018-09-30T17:55:05.024Z,77.49
2018-09-30T17:57:34.740Z,77.58
2018-09-30T18:00:04.650Z,78.32
2018-09-30T18:02:34.091Z,78.30
2018-09-30T18:05:03.651Z,78.33
2018-09-30T18:07:33.057Z,79.45
2018-09-30T18:10:02.406Z,79.74
2018-09-30T18:12:31.848Z,79.88
2018-09-30T18:15:01.142Z,80.44
2018-09-30T18:17:30.892Z,81.68
2018-09-30T18:20:00.224Z,82.25
2018-09-30T18:22:29.572Z,82.58
2018-09-30T18:24:58.879Z,82.64
2018-09-30T18:27:28.197Z,83.39
2018-09-30T18:29:57.520Z,83.17
2018-09-30T18:32:26.949Z,83.63
2018-09-30T18:34:56.395Z,83.60
2018-09-30T18:37:25.790Z,83.33
2018-09-30T18:39:55.311Z,83.14
2018-09-30T18:42:24.594Z,82.56
2018-09-30T18:44:53.894Z,82.50
2018-09-30T18:47:23.313Z,82.27
2018-09-30T18:49:52.623Z,82.94
2018-09-30T18:52:21.907Z,82.63
2018-09-30T18:54:51.192Z,82.47
2018-09-30T18:57:20.546Z,82.90
2018-09-30T18:59:49.830Z,82.87
2018-09-30T19:02:19.142Z,82.93
2018-09-30T19:04:48.501Z,82.76
2018-09-30T19:07:18.000Z,82.40
2018-09-30T19:09:47.593Z,83.94
2018-09-30T19:12:17.242Z,84.00
2018-09-30T19:14:46.766Z,84.00
2018-09-30T19:17:16.239Z,83.06
2018-09-30T19:19:45.535Z,82.28
2018-09-30T19:22:15.182Z,82.19
2018-09-30T19:24:44.810Z,81.11
2018-09-30T19:27:14.325Z,81.39
2018-09-30T19:29:43.898Z,81.26
2018-09-30T19:32:13.431Z,81.07
2018-09-30T19:34:42.660Z,81.08
2018-09-30T19:37:12.186Z,81.02
2018-09-30T19:39:41.794Z,82.06
2018-09-30T19:42:11.162Z,82.36
2018-09-30T19:44:40.548Z,83.33
2018-09-30T19:47:09.867Z,83.80
2018-09-30T19:49:39.333Z,84.34
2018-09-30T19:52:09.420Z,84.70
2018-09-30T19:54:38.897Z,84.78
2018-09-30T19:57:08.338Z,85.85
2018-09-30T19:59:37.917Z,85.54
2018-09-30T20:02:07.292Z,85.68
2018-09-30T20:04:36.721Z,86.51
2018-09-30T20:07:06.048Z,86.31
2018-09-30T20:09:35.429Z,86.35
2018-09-30T20:12:04.775Z,86.90
2018-09-30T20:14:34.305Z,87.70
2018-09-30T20:17:03.720Z,88.15
2018-09-30T20:19:33.098Z,88.68
2018-09-30T20:22:02.570Z,89.22
2018-09-30T20:24:32.013Z,89.10
2018-09-30T20:27:01.388Z,90.10
2018-09-30T20:29:30.718Z,90.58
2018-09-30T20:32:00.104Z,90.58
2018-09-30T20:34:29.594Z,90.62
2018-09-30T20:36:59.164Z,91.09
2018-09-30T20:39:28.636Z,90.50
2018-09-30T20:41:57.966Z,90.47
2018-09-30T20:44:27.565Z,90.03
2018-09-30T20:46:56.939Z,89.84
2018-09-30T20:49:26.436Z,90.05
2018-09-30T20:51:55.729Z,90.45
2018-09-30T20:54:25.096Z,90.66
2018-09-30T20:56:54.410Z,90.15
2018-09-30T20:59:23.793Z,90.56
2018-09-30T21:01:53.235Z,91.08
2018-09-30T21:04:22.762Z,91.72
2018-09-30T21:06:52.220Z,92.05
2018-09-30T21:09:22.948Z,92.21
2018-09-30T21:11:52.421Z,92.91
2018-09-30T21:14:22.118Z,92.64
2018-09-30T21:16:51.543Z,92.84
2018-09-30T21:19:21.715Z,93.00
2018-09-30T21:21:51.505Z,93.06
2018-09-30T21:24:21.051Z,93.03
2018-09-30T21:26:50.357Z,93.57
2018-09-30T21:29:19.921Z,93.32
2018-09-30T21:31:49.584Z,92.97
2018-09-30T21:34:19.072Z,93.54
2018-09-30T21:36:48.332Z,92.50
2018-09-30T21:39:17.681Z,93.18
2018-09-30T21:41:46.936Z,94.32
2018-09-30T21:44:16.290Z,94.20
2018-09-30T21:46:45.571Z,94.79
2018-09-30T21:49:14.901Z,95.39
2018-09-30T21:51:44.171Z,95.17
2018-09-30T21:54:13.404Z,95.05
2018-09-30T21:56:42.683Z,95.01
2018-09-30T21:59:12.002Z,95.62
2018-09-30T22:01:41.309Z,95.37
2018-09-30T22:04:10.571Z,95.96
2018-09-30T22:06:39.921Z,96.05
2018-09-30T22:09:09.197Z,96.52
2018-09-30T22:11:38.554Z,96.74
2018-09-30T22:14:07.814Z,96.63
2018-09-30T22:16:37.091Z,96.74
2018-09-30T22:19:06.369Z,97.20
2018-09-30T22:21:35.691Z,96.62
2018-09-30T22:24:04.935Z,96.86
2018-09-30T22:26:34.296Z,97.09
2018-09-30T22:29:03.659Z,96.61
2018-09-30T22:31:33.006Z,96.92
2018-09-30T22:34:02.291Z,96.66
2018-09-30T22:36:31.637Z,96.73
2018-09-30T22:39:00.951Z,96.53
2018-09-30T22:41:30.251Z,97.06
2018-09-30T22:43:59.493Z,97.43
2018-09-30T22:46:28.961Z,97.25
2018-09-30T22:48:58.273Z,98.08
2018-09-30T22:51:27.623Z,98.42
2018-09-30T22:53:56.865Z,97.86
2018-09-30T22:56:26.115Z,97.83
2018-09-30T22:58:55.362Z,97.37
2018-09-30T23:01:24.660Z,97.66
2018-09-30T23:03:53.914Z,98.49
2018-09-30T23:06:23.302Z,99.09
2018-09-30T23:08:52.572Z,99.26
2018-09-30T23:11:21.938Z,99.37
2018-09-30T23:13:51.217Z,99.16
2018-09-30T23:16:20.495Z,98.60
2018-09-30T23:18:49.815Z,98.95
2018-09-30T23:21:19.109Z,98.34
2018-09-30T23:23:48.398Z,98.80
2018-09-30T23:26:17.672Z,98.90
2018-09-30T23:28:46.975Z,98.85
2018-09-30T23:31:16.236Z,98.18
2018-09-30T23:33:45.516Z,98.11
2018-09-30T23:36:14.886Z,97.58
2018-09-30T23:38:44.261Z,97.18
2018-09-30T23:41:13.572Z,97.02
2018-09-30T23:43:42.866Z,96.88
2018-09-30T23:46:12.182Z,97.30
2018-09-30T23:48:41.452Z,98.23
2018-09-30T23:51:10.787Z,98.16
2018-09-30T23:53:40.038Z,97.80
2018-09-30T23:56:09.410Z,97.87
2018-09-30T23:58:38.735Z,97.59
